sensor_id;sensor_type;location;lat;lon;timestamp;pressure;altitude;pressure_sealevel;temperature;humidity
22440;BME280;11387;51.612;7.210;2023-04-01T00:01:27;98476.88;;;8.49;100.00
22440;BME280;11387;51.612;7.210;2023-04-01T00:03:55;98482.19;;;8.45;100.00
22440;BME280;11387;51.612;7.210;2023-04-01T00:06:25;98462.56;;;8.52;100.00
22440;BME280;11387;51.612;7.210;2023-04-01T00:08:53;98474.13;;;8.49;100.00
22440;BME280;11387;51.612;7.210;2023-04-01T00:11:22;98484.13;;;8.44;100.00
22440;BME280;11387;51.612;7.210;2023-04-01T00:13:50;98483.91;;;8.50;100.00
22440;BME280;11387;51.612;7.210;2023-04-01T00:16:18;98481.19;;;8.50;100.00
22440;BME280;11387;51.612;7.210;2023-04-01T00:18:49;98470.97;;;8.47;100.00
22440;BME280;11387;51.612;7.210;2023-04-01T00:21:17;98480.94;;;8.42;100.00
22440;BME280;11387;51.612;7.210;2023-04-01T00:23:48;98482.53;;;8.43;100.00
22440;BME280;11387;51.612;7.210;2023-04-01T00:26:16;98470.25;;;8.37;100.00
22440;BME280;11387;51.612;7.210;2023-04-01T00:28:47;98477.28;;;8.38;100.00
22440;BME280;11387;51.612;7.210;2023-04-01T00:31:15;98475.22;;;8.35;100.00
22440;BME280;11387;51.612;7.210;2023-04-01T00:33:44;98470.91;;;8.34;100.00
22440;BME280;11387;51.612;7.210;2023-04-01T00:36:13;98477.00;;;8.31;100.00
22440;BME280;11387;51.612;7.210;2023-04-01T00:38:42;98467.06;;;8.35;100.00
22440;BME280;11387;51.612;7.210;2023-04-01T00:41:11;98477.50;;;8.33;100.00
22440;BME280;11387;51.612;7.210;2023-04-01T00:43:41;98460.94;;;8.38;100.00
22440;BME280;11387;51.612;7.210;2023-04-01T00:46:10;98464.66;;;8.34;100.00
22440;BME280;11387;51.612;7.210;2023-04-01T00:48:39;98472.03;;;8.33;100.00
22440;BME280;11387;51.612;7.210;2023-04-01T00:51:09;98474.09;;;8.36;100.00
22440;BME280;11387;51.612;7.210;2023-04-01T00:53:40;98464.13;;;8.40;100.00
22440;BME280;11387;51.612;7.210;2023-04-01T00:56:10;98476.16;;;8.39;100.00
22440;BME280;11387;51.612;7.210;2023-04-01T00:58:43;98453.44;;;8.35;100.00
22440;BME280;11387;51.612;7.210;2023-04-01T01:01:12;98468.38;;;8.29;100.00
22440;BME280;11387;51.612;7.210;2023-04-01T01:03:40;98464.03;;;8.28;100.00
22440;BME280;11387;51.612;7.210;2023-04-01T01:06:15;98466.78;;;8.28;100.00
22440;BME280;11387;51.612;7.210;2023-04-01T01:11:37;98462.44;;;8.27;100.00
22440;BME280;11387;51.612;7.210;2023-04-01T01:14:14;98465.63;;;8.29;100.00
22440;BME280;11387;51.612;7.210;2023-04-01T01:16:48;98461.16;;;8.33;100.00
22440;BME280;11387;51.612;7.210;2023-04-01T01:19:33;98460.19;;;8.29;100.00
22440;BME280;11387;51.612;7.210;2023-04-01T01:22:22;98456.81;;;8.32;100.00
22440;BME280;11387;51.612;7.210;2023-04-01T01:25:00;98462.78;;;8.26;100.00
22440;BME280;11387;51.612;7.210;2023-04-01T01:27:35;98459.41;;;8.29;100.00
22440;BME280;11387;51.612;7.210;2023-04-01T01:30:15;98473.69;;;8.26;100.00
22440;BME280;11387;51.612;7.210;2023-04-01T01:33:07;98454.84;;;8.21;100.00
22440;BME280;11387;51.612;7.210;2023-04-01T01:35:42;98463.81;;;8.21;100.00
22440;BME280;11387;51.612;7.210;2023-04-01T01:38:13;98455.88;;;8.28;100.00
22440;BME280;11387;51.612;7.210;2023-04-01T01:40:44;98466.22;;;8.23;100.00
22440;BME280;11387;51.612;7.210;2023-04-01T01:43:16;98454.38;;;8.19;100.00
22440;BME280;11387;51.612;7.210;2023-04-01T01:45:47;98458.50;;;8.25;100.00
22440;BME280;11387;51.612;7.210;2023-04-01T01:48:16;98452.94;;;8.21;100.00
22440;BME280;11387;51.612;7.210;2023-04-01T01:50:47;98453.25;;;8.20;100.00
22440;BME280;11387;51.612;7.210;2023-04-01T01:53:16;98454.53;;;8.22;100.00
22440;BME280;11387;51.612;7.210;2023-04-01T01:55:45;98449.06;;;8.22;100.00
22440;BME280;11387;51.612;7.210;2023-04-01T01:58:14;98455.84;;;8.16;100.00
22440;BME280;11387;51.612;7.210;2023-04-01T02:00:46;98448.41;;;8.25;100.00
22440;BME280;11387;51.612;7.210;2023-04-01T02:03:16;98447.00;;;8.19;100.00
22440;BME280;11387;51.612;7.210;2023-04-01T02:05:46;98450.19;;;8.21;100.00
22440;BME280;11387;51.612;7.210;2023-04-01T02:08:16;98441.91;;;8.18;100.00
22440;BME280;11387;51.612;7.210;2023-04-01T02:10:47;98446.69;;;8.21;100.00
22440;BME280;11387;51.612;7.210;2023-04-01T02:13:18;98437.91;;;8.15;100.00
22440;BME280;11387;51.612;7.210;2023-04-01T02:15:50;98446.69;;;8.21;100.00
22440;BME280;11387;51.612;7.210;2023-04-01T02:18:22;98435.66;;;8.17;100.00
22440;BME280;11387;51.612;7.210;2023-04-01T02:20:52;98428.63;;;8.16;100.00
22440;BME280;11387;51.612;7.210;2023-04-01T02:23:22;98441.31;;;8.12;100.00
22440;BME280;11387;51.612;7.210;2023-04-01T02:25:51;98443.09;;;8.08;100.00
22440;BME280;11387;51.612;7.210;2023-04-01T02:28:19;98451.63;;;8.06;100.00
22440;BME280;11387;51.612;7.210;2023-04-01T02:30:48;98438.00;;;8.06;100.00
22440;BME280;11387;51.612;7.210;2023-04-01T02:33:17;98451.63;;;8.06;100.00
22440;BME280;11387;51.612;7.210;2023-04-01T02:35:47;98434.47;;;8.06;100.00
22440;BME280;11387;51.612;7.210;2023-04-01T02:38:16;98440.72;;;8.06;100.00
22440;BME280;11387;51.612;7.210;2023-04-01T02:40:46;98447.16;;;8.02;100.00
22440;BME280;11387;51.612;7.210;2023-04-01T02:43:15;98445.16;;;8.11;100.00
22440;BME280;11387;51.612;7.210;2023-04-01T02:45:44;98447.88;;;8.11;100.00
22440;BME280;11387;51.612;7.210;2023-04-01T02:48:12;98448.56;;;8.08;100.00
22440;BME280;11387;51.612;7.210;2023-04-01T02:50:41;98438.59;;;8.12;100.00
22440;BME280;11387;51.612;7.210;2023-04-01T02:53:09;98454.47;;;8.10;100.00
22440;BME280;11387;51.612;7.210;2023-04-01T02:55:40;98453.34;;;8.11;100.00
22440;BME280;11387;51.612;7.210;2023-04-01T02:58:08;98457.97;;;8.10;100.00
22440;BME280;11387;51.612;7.210;2023-04-01T03:00:39;98454.78;;;8.08;100.00
22440;BME280;11387;51.612;7.210;2023-04-01T03:03:07;98464.09;;;8.07;100.00
22440;BME280;11387;51.612;7.210;2023-04-01T03:05:36;98460.56;;;8.07;100.00
22440;BME280;11387;51.612;7.210;2023-04-01T03:08:04;98468.75;;;8.07;100.00
22440;BME280;11387;51.612;7.210;2023-04-01T03:10:33;98458.31;;;8.09;100.00
22440;BME280;11387;51.612;7.210;2023-04-01T03:13:03;98471.47;;;8.07;100.00
22440;BME280;11387;51.612;7.210;2023-04-01T03:15:31;98469.53;;;8.07;100.00
22440;BME280;11387;51.612;7.210;2023-04-01T03:18:00;98480.44;;;8.07;100.00
22440;BME280;11387;51.612;7.210;2023-04-01T03:20:29;98469.22;;;8.09;100.00
22440;BME280;11387;51.612;7.210;2023-04-01T03:22:57;98472.13;;;8.04;100.00
22440;BME280;11387;51.612;7.210;2023-04-01T03:25:26;98483.50;;;8.06;100.00
22440;BME280;11387;51.612;7.210;2023-04-01T03:27:55;98485.75;;;8.04;100.00
22440;BME280;11387;51.612;7.210;2023-04-01T03:30:44;98485.41;;;8.05;100.00
22440;BME280;11387;51.612;7.210;2023-04-01T03:33:12;98475.66;;;8.04;100.00
22440;BME280;11387;51.612;7.210;2023-04-01T03:35:40;98488.13;;;8.05;100.00
22440;BME280;11387;51.612;7.210;2023-04-01T03:38:08;98480.09;;;8.09;100.00
22440;BME280;11387;51.612;7.210;2023-04-01T03:40:37;98485.09;;;8.07;100.00
22440;BME280;11387;51.612;7.210;2023-04-01T03:43:05;98491.06;;;8.00;100.00
22440;BME280;11387;51.612;7.210;2023-04-01T03:45:35;98491.88;;;8.01;100.00
22440;BME280;11387;51.612;7.210;2023-04-01T03:48:05;98489.41;;;8.08;100.00
22440;BME280;11387;51.612;7.210;2023-04-01T03:50:34;98486.22;;;8.06;100.00
22440;BME280;11387;51.612;7.210;2023-04-01T03:53:02;98488.13;;;8.05;100.00
22440;BME280;11387;51.612;7.210;2023-04-01T03:55:30;98480.97;;;8.01;100.00
22440;BME280;11387;51.612;7.210;2023-04-01T03:57:59;98490.88;;;8.05;100.00
22440;BME280;11387;51.612;7.210;2023-04-01T04:00:29;98486.88;;;8.03;100.00
22440;BME280;11387;51.612;7.210;2023-04-01T04:02:58;98481.91;;;8.05;100.00
22440;BME280;11387;51.612;7.210;2023-04-01T04:05:27;98486.69;;;8.08;100.00
22440;BME280;11387;51.612;7.210;2023-04-01T04:07:56;98489.66;;;8.15;100.00
22440;BME280;11387;51.612;7.210;2023-04-01T04:10:24;98492.19;;;8.20;100.00
22440;BME280;11387;51.612;7.210;2023-04-01T04:12:52;98493.97;;;8.16;100.00
22440;BME280;11387;51.612;7.210;2023-04-01T04:15:21;98497.91;;;8.06;100.00
22440;BME280;11387;51.612;7.210;2023-04-01T04:17:49;98492.25;;;8.11;100.00
22440;BME280;11387;51.612;7.210;2023-04-01T04:20:18;98499.84;;;8.06;100.00
22440;BME280;11387;51.612;7.210;2023-04-01T04:22:48;98498.50;;;8.12;100.00
22440;BME280;11387;51.612;7.210;2023-04-01T04:25:16;98494.19;;;8.11;100.00
22440;BME280;11387;51.612;7.210;2023-04-01T04:27:45;98495.56;;;8.17;100.00
22440;BME280;11387;51.612;7.210;2023-04-01T04:30:13;98495.78;;;8.12;100.00
22440;BME280;11387;51.612;7.210;2023-04-01T04:32:56;98511.00;;;8.13;100.00
22440;BME280;11387;51.612;7.210;2023-04-01T04:35:24;98500.69;;;8.19;100.00
22440;BME280;11387;51.612;7.210;2023-04-01T04:37:54;98498.97;;;8.14;100.00
22440;BME280;11387;51.612;7.210;2023-04-01T04:40:22;98499.16;;;8.09;100.00
22440;BME280;11387;51.612;7.210;2023-04-01T04:42:50;98511.25;;;8.20;100.00
22440;BME280;11387;51.612;7.210;2023-04-01T04:45:19;98504.88;;;8.16;100.00
22440;BME280;11387;51.612;7.210;2023-04-01T04:47:47;98503.41;;;8.19;100.00
22440;BME280;11387;51.612;7.210;2023-04-01T04:50:16;98510.66;;;8.15;100.00
22440;BME280;11387;51.612;7.210;2023-04-01T04:52:44;98514.84;;;8.12;100.00
22440;BME280;11387;51.612;7.210;2023-04-01T04:55:14;98516.44;;;8.13;100.00
22440;BME280;11387;51.612;7.210;2023-04-01T04:57:42;98518.03;;;8.14;100.00
22440;BME280;11387;51.612;7.210;2023-04-01T05:00:11;98512.72;;;8.18;100.00
22440;BME280;11387;51.612;7.210;2023-04-01T05:02:39;98513.50;;;8.18;100.00
22440;BME280;11387;51.612;7.210;2023-04-01T05:05:08;98519.50;;;8.11;100.00
22440;BME280;11387;51.612;7.210;2023-04-01T05:07:37;98525.34;;;8.22;100.00
22440;BME280;11387;51.612;7.210;2023-04-01T05:10:06;98515.63;;;8.13;100.00
22440;BME280;11387;51.612;7.210;2023-04-01T05:12:35;98523.47;;;8.14;100.00
22440;BME280;11387;51.612;7.210;2023-04-01T05:15:06;98518.03;;;8.14;100.00
22440;BME280;11387;51.612;7.210;2023-04-01T05:17:34;98528.47;;;8.12;100.00
22440;BME280;11387;51.612;7.210;2023-04-01T05:20:03;98529.19;;;8.21;100.00
22440;BME280;11387;51.612;7.210;2023-04-01T05:22:32;98527.47;;;8.17;100.00
22440;BME280;11387;51.612;7.210;2023-04-01T05:25:00;98529.25;;;8.13;100.00
22440;BME280;11387;51.612;7.210;2023-04-01T05:27:30;98529.06;;;8.18;100.00
22440;BME280;11387;51.612;7.210;2023-04-01T05:30:01;98531.31;;;8.16;100.00
22440;BME280;11387;51.612;7.210;2023-04-01T05:32:30;98531.44;;;8.19;100.00
22440;BME280;11387;51.612;7.210;2023-04-01T05:34:59;98530.53;;;8.15;100.00
22440;BME280;11387;51.612;7.210;2023-04-01T05:37:27;98539.03;;;8.14;100.00
22440;BME280;11387;51.612;7.210;2023-04-01T05:39:56;98537.69;;;8.20;100.00
22440;BME280;11387;51.612;7.210;2023-04-01T05:42:25;98538.03;;;8.18;100.00
22440;BME280;11387;51.612;7.210;2023-04-01T05:44:54;98543.00;;;8.16;100.00
22440;BME280;11387;51.612;7.210;2023-04-01T05:47:24;98543.75;;;8.25;100.00
22440;BME280;11387;51.612;7.210;2023-04-01T05:49:52;98543.75;;;8.25;100.00
22440;BME280;11387;51.612;7.210;2023-04-01T05:52:22;98542.81;;;8.21;100.00
22440;BME280;11387;51.612;7.210;2023-04-01T05:54:50;98540.28;;;8.16;100.00
22440;BME280;11387;51.612;7.210;2023-04-01T05:57:19;98543.94;;;8.20;100.00
22440;BME280;11387;51.612;7.210;2023-04-01T05:59:48;98555.78;;;8.24;100.00
22440;BME280;11387;51.612;7.210;2023-04-01T06:02:16;98544.88;;;8.24;100.00
22440;BME280;11387;51.612;7.210;2023-04-01T06:04:49;98549.97;;;8.26;100.00
22440;BME280;11387;51.612;7.210;2023-04-01T06:07:22;98553.47;;;8.26;100.00
22440;BME280;11387;51.612;7.210;2023-04-01T06:09:50;98561.22;;;8.24;100.00
22440;BME280;11387;51.612;7.210;2023-04-01T06:12:25;98555.63;;;8.21;100.00
22440;BME280;11387;51.612;7.210;2023-04-01T06:14:57;98554.97;;;8.24;100.00
22440;BME280;11387;51.612;7.210;2023-04-01T06:17:34;98556.19;;;8.26;100.00
22440;BME280;11387;51.612;7.210;2023-04-01T06:20:15;98558.94;;;8.26;100.00
22440;BME280;11387;51.612;7.210;2023-04-01T06:23:09;98562.75;;;8.34;100.00
22440;BME280;11387;51.612;7.210;2023-04-01T06:28:34;98574.59;;;8.29;100.00
22440;BME280;11387;51.612;7.210;2023-04-01T06:31:05;98565.06;;;8.23;100.00
22440;BME280;11387;51.612;7.210;2023-04-01T06:33:42;98565.63;;;8.29;100.00
22440;BME280;11387;51.612;7.210;2023-04-01T06:36:34;98570.13;;;8.33;100.00
22440;BME280;11387;51.612;7.210;2023-04-01T06:39:10;98573.97;;;8.32;100.00
22440;BME280;11387;51.612;7.210;2023-04-01T06:42:05;98583.91;;;8.28;100.00
22440;BME280;11387;51.612;7.210;2023-04-01T06:44:50;98581.66;;;8.30;100.00
22440;BME280;11387;51.612;7.210;2023-04-01T06:47:25;98581.53;;;8.27;100.00
22440;BME280;11387;51.612;7.210;2023-04-01T06:49:58;98584.88;;;8.32;100.00
22440;BME280;11387;51.612;7.210;2023-04-01T06:52:30;98588.47;;;8.24;100.00
22440;BME280;11387;51.612;7.210;2023-04-01T06:55:06;98581.47;;;8.35;100.00
22440;BME280;11387;51.612;7.210;2023-04-01T06:57:42;98591.91;;;8.33;100.00
22440;BME280;11387;51.612;7.210;2023-04-01T07:00:13;98590.06;;;8.25;100.00
22440;BME280;11387;51.612;7.210;2023-04-01T07:02:45;98589.66;;;8.35;100.00
22440;BME280;11387;51.612;7.210;2023-04-01T07:05:21;98596.41;;;8.29;100.00
22440;BME280;11387;51.612;7.210;2023-04-01T07:07:53;98583.13;;;8.28;100.00
22440;BME280;11387;51.612;7.210;2023-04-01T07:10:23;98596.56;;;8.33;100.00
22440;BME280;11387;51.612;7.210;2023-04-01T07:12:55;98595.28;;;8.30;100.00
22440;BME280;11387;51.612;7.210;2023-04-01T07:15:28;98595.59;;;8.29;100.00
22440;BME280;11387;51.612;7.210;2023-04-01T07:17:58;98597.38;;;8.33;100.00
22440;BME280;11387;51.612;7.210;2023-04-01T07:20:30;98592.78;;;8.25;100.00
22440;BME280;11387;51.612;7.210;2023-04-01T07:23:02;98597.53;;;8.28;100.00
22440;BME280;11387;51.612;7.210;2023-04-01T07:25:33;98609.38;;;8.32;100.00
22440;BME280;11387;51.612;7.210;2023-04-01T07:28:04;98609.84;;;8.34;100.00
22440;BME280;11387;51.612;7.210;2023-04-01T07:30:35;98606.28;;;8.42;100.00
22440;BME280;11387;51.612;7.210;2023-04-01T07:33:04;98607.06;;;8.43;100.00
22440;BME280;11387;51.612;7.210;2023-04-01T07:35:36;98615.56;;;8.41;100.00
22440;BME280;11387;51.612;7.210;2023-04-01T07:38:12;98616.84;;;8.44;100.00
22440;BME280;11387;51.612;7.210;2023-04-01T07:40:46;98619.03;;;8.51;100.00
22440;BME280;11387;51.612;7.210;2023-04-01T07:43:26;98620.50;;;8.48;100.00
22440;BME280;11387;51.612;7.210;2023-04-01T07:45:59;98617.97;;;8.43;100.00
22440;BME280;11387;51.612;7.210;2023-04-01T07:48:30;98621.56;;;8.56;100.00
22440;BME280;11387;51.612;7.210;2023-04-01T07:51:02;98622.13;;;8.61;100.00
22440;BME280;11387;51.612;7.210;2023-04-01T07:53:34;98625.25;;;8.72;100.00
22440;BME280;11387;51.612;7.210;2023-04-01T07:56:05;98628.19;;;8.67;100.00
22440;BME280;11387;51.612;7.210;2023-04-01T07:58:39;98632.03;;;8.66;100.00
22440;BME280;11387;51.612;7.210;2023-04-01T08:01:11;98632.97;;;8.70;100.00
22440;BME280;11387;51.612;7.210;2023-04-01T08:03:47;98636.97;;;8.52;100.00
22440;BME280;11387;51.612;7.210;2023-04-01T08:06:20;98636.69;;;8.65;100.00
22440;BME280;11387;51.612;7.210;2023-04-01T08:08:56;98642.13;;;8.65;100.00
22440;BME280;11387;51.612;7.210;2023-04-01T08:11:31;98647.59;;;8.65;100.00
22440;BME280;11387;51.612;7.210;2023-04-01T08:14:04;98646.47;;;8.66;100.00
22440;BME280;11387;51.612;7.210;2023-04-01T08:16:37;98646.78;;;8.65;100.00
22440;BME280;11387;51.612;7.210;2023-04-01T08:19:14;98653.56;;;8.59;100.00
22440;BME280;11387;51.612;7.210;2023-04-01T08:21:47;98654.03;;;8.61;100.00
22440;BME280;11387;51.612;7.210;2023-04-01T08:24:20;98652.91;;;8.62;100.00
22440;BME280;11387;51.612;7.210;2023-04-01T08:26:53;98655.44;;;8.67;100.00
22440;BME280;11387;51.612;7.210;2023-04-01T08:29:23;98654.31;;;8.68;100.00
22440;BME280;11387;51.612;7.210;2023-04-01T08:31:55;98660.44;;;8.65;100.00
22440;BME280;11387;51.612;7.210;2023-04-01T08:34:27;98658.91;;;8.76;100.00
22440;BME280;11387;51.612;7.210;2023-04-01T08:36:57;98662.88;;;8.78;100.00
22440;BME280;11387;51.612;7.210;2023-04-01T08:39:30;98668.41;;;8.70;100.00
22440;BME280;11387;51.612;7.210;2023-04-01T08:42:07;98667.81;;;8.85;100.00
22440;BME280;11387;51.612;7.210;2023-04-01T08:45:04;98673.34;;;8.89;100.00
22440;BME280;11387;51.612;7.210;2023-04-01T08:47:46;98671.22;;;8.94;100.00
22440;BME280;11387;51.612;7.210;2023-04-01T08:50:26;98678.94;;;8.92;100.00
22440;BME280;11387;51.612;7.210;2023-04-01T08:53:03;98675.22;;;8.97;100.00
22440;BME280;11387;51.612;7.210;2023-04-01T08:55:38;98689.97;;;8.96;100.00
22440;BME280;11387;51.612;7.210;2023-04-01T08:58:18;98687.38;;;8.99;100.00
22440;BME280;11387;51.612;7.210;2023-04-01T09:00:53;98689.19;;;8.95;100.00
22440;BME280;11387;51.612;7.210;2023-04-01T09:03:25;98687.59;;;8.94;100.00
22440;BME280;11387;51.612;7.210;2023-04-01T09:08:50;98697.09;;;8.88;100.00
22440;BME280;11387;51.612;7.210;2023-04-01T09:11:29;98695.50;;;8.87;100.00
22440;BME280;11387;51.612;7.210;2023-04-01T09:14:08;98703.94;;;8.94;100.00
22440;BME280;11387;51.612;7.210;2023-04-01T09:19:41;98701.81;;;9.00;100.00
22440;BME280;11387;51.612;7.210;2023-04-01T09:22:21;98700.28;;;8.90;100.00
22440;BME280;11387;51.612;7.210;2023-04-01T09:27:39;98719.84;;;8.92;100.00
22440;BME280;11387;51.612;7.210;2023-04-01T09:35:56;98723.44;;;9.05;100.00
22440;BME280;11387;51.612;7.210;2023-04-01T09:38:35;98734.47;;;9.08;100.00
22440;BME280;11387;51.612;7.210;2023-04-01T09:41:07;98722.56;;;9.13;100.00
22440;BME280;11387;51.612;7.210;2023-04-01T09:43:46;98728.38;;;9.24;100.00
22440;BME280;11387;51.612;7.210;2023-04-01T09:46:23;98735.63;;;9.07;100.00
22440;BME280;11387;51.612;7.210;2023-04-01T09:49:04;98741.44;;;9.18;100.00
22440;BME280;11387;51.612;7.210;2023-04-01T09:51:39;98738.16;;;9.25;100.00
22440;BME280;11387;51.612;7.210;2023-04-01T09:54:13;98734.66;;;9.24;100.00
22440;BME280;11387;51.612;7.210;2023-04-01T09:57:00;98741.16;;;9.32;100.00
22440;BME280;11387;51.612;7.210;2023-04-01T10:02:35;98742.22;;;9.39;100.00
22440;BME280;11387;51.612;7.210;2023-04-01T10:05:25;98742.56;;;9.38;100.00
22440;BME280;11387;51.612;7.210;2023-04-01T10:08:05;98748.94;;;9.42;100.00
22440;BME280;11387;51.612;7.210;2023-04-01T10:25:26;98765.66;;;9.40;100.00
22440;BME280;11387;51.612;7.210;2023-04-01T10:28:10;98768.03;;;9.42;100.00
22440;BME280;11387;51.612;7.210;2023-04-01T10:33:36;98774.66;;;9.53;100.00
22440;BME280;11387;51.612;7.210;2023-04-01T10:36:16;98771.25;;;9.56;100.00
22440;BME280;11387;51.612;7.210;2023-04-01T10:38:57;98773.78;;;9.61;100.00
22440;BME280;11387;51.612;7.210;2023-04-01T10:41:55;98776.50;;;9.61;100.00
22440;BME280;11387;51.612;7.210;2023-04-01T10:44:42;98776.47;;;9.49;100.00
22440;BME280;11387;51.612;7.210;2023-04-01T10:47:32;98782.63;;;9.58;100.00
22440;BME280;11387;51.612;7.210;2023-04-01T10:50:17;98779.97;;;9.83;100.00
22440;BME280;11387;51.612;7.210;2023-04-01T10:53:03;98778.59;;;9.76;100.00
22440;BME280;11387;51.612;7.210;2023-04-01T10:58:33;98786.47;;;9.78;100.00
22440;BME280;11387;51.612;7.210;2023-04-01T11:01:15;98792.28;;;9.89;100.00
22440;BME280;11387;51.612;7.210;2023-04-01T11:23:54;98818.50;;;10.02;100.00
22440;BME280;11387;51.612;7.210;2023-04-01T11:26:33;98823.94;;;10.02;100.00
22440;BME280;11387;51.612;7.210;2023-04-01T11:29:20;98825.84;;;9.89;100.00
22440;BME280;11387;51.612;7.210;2023-04-01T11:31:55;98822.19;;;9.85;100.00
22440;BME280;11387;51.612;7.210;2023-04-01T11:34:43;98826.66;;;9.90;100.00
22440;BME280;11387;51.612;7.210;2023-04-01T11:37:21;98827.31;;;9.87;100.00
22440;BME280;11387;51.612;7.210;2023-04-01T11:40:03;98830.03;;;9.74;100.00
22440;BME280;11387;51.612;7.210;2023-04-01T11:42:37;98826.25;;;9.79;100.00
22440;BME280;11387;51.612;7.210;2023-04-01T11:45:12;98837.19;;;9.79;100.00
22440;BME280;11387;51.612;7.210;2023-04-01T11:50:41;98842.78;;;9.83;100.00
22440;BME280;11387;51.612;7.210;2023-04-01T11:53:26;98842.91;;;9.86;100.00
22440;BME280;11387;51.612;7.210;2023-04-01T11:56:02;98843.56;;;9.83;100.00
22440;BME280;11387;51.612;7.210;2023-04-01T11:58:47;98850.34;;;9.98;100.00
22440;BME280;11387;51.612;7.210;2023-04-01T12:01:26;98857.66;;;10.06;100.00
22440;BME280;11387;51.612;7.210;2023-04-01T12:04:04;98859.22;;;9.95;100.00
22440;BME280;11387;51.612;7.210;2023-04-01T12:06:35;98862.16;;;9.90;100.00
22440;BME280;11387;51.612;7.210;2023-04-01T12:09:08;98858.38;;;9.82;100.00
22440;BME280;11387;51.612;7.210;2023-04-01T12:11:44;98861.59;;;9.63;100.00
22440;BME280;11387;51.612;7.210;2023-04-01T12:14:16;98859.47;;;9.48;100.00
22440;BME280;11387;51.612;7.210;2023-04-01T12:16:55;98871.56;;;9.47;100.00
22440;BME280;11387;51.612;7.210;2023-04-01T12:19:29;98863.16;;;9.52;100.00
22440;BME280;11387;51.612;7.210;2023-04-01T12:22:06;98876.06;;;9.64;100.00
22440;BME280;11387;51.612;7.210;2023-04-01T12:27:37;98880.06;;;9.66;100.00
22440;BME280;11387;51.612;7.210;2023-04-01T12:33:20;98890.94;;;9.87;100.00
22440;BME280;11387;51.612;7.210;2023-04-01T12:35:55;98900.84;;;9.92;100.00
22440;BME280;11387;51.612;7.210;2023-04-01T12:38:30;98897.47;;;9.95;100.00
22440;BME280;11387;51.612;7.210;2023-04-01T12:41:07;98902.97;;;10.07;100.00
22440;BME280;11387;51.612;7.210;2023-04-01T12:46:37;98906.13;;;10.09;100.00
22440;BME280;11387;51.612;7.210;2023-04-01T12:49:23;98903.88;;;10.11;100.00
22440;BME280;11387;51.612;7.210;2023-04-01T12:51:57;98907.47;;;10.24;100.00
22440;BME280;11387;51.612;7.210;2023-04-01T12:57:34;98917.88;;;10.42;100.00
22440;BME280;11387;51.612;7.210;2023-04-01T13:00:16;98921.31;;;10.52;100.00
22440;BME280;11387;51.612;7.210;2023-04-01T13:02:57;98934.59;;;10.41;100.00
22440;BME280;11387;51.612;7.210;2023-04-01T13:05:34;98940.19;;;10.32;100.00
22440;BME280;11387;51.612;7.210;2023-04-01T13:08:12;98938.13;;;10.29;100.00
22440;BME280;11387;51.612;7.210;2023-04-01T13:10:49;98938.53;;;10.19;100.00
22440;BME280;11387;51.612;7.210;2023-04-01T13:13:26;98938.25;;;10.12;100.00
22440;BME280;11387;51.612;7.210;2023-04-01T13:16:01;98946.00;;;10.10;100.00
22440;BME280;11387;51.612;7.210;2023-04-01T13:18:38;98950.28;;;9.99;100.00
22440;BME280;11387;51.612;7.210;2023-04-01T13:21:11;98951.63;;;9.93;100.00
22440;BME280;11387;51.612;7.210;2023-04-01T13:23:48;98951.69;;;10.05;100.00
22440;BME280;11387;51.612;7.210;2023-04-01T13:26:22;98962.84;;;10.12;100.00
22440;BME280;11387;51.612;7.210;2023-04-01T13:28:57;98961.25;;;10.11;100.00
22440;BME280;11387;51.612;7.210;2023-04-01T13:31:30;98961.72;;;10.13;100.00
22440;BME280;11387;51.612;7.210;2023-04-01T13:34:08;98967.63;;;10.03;100.00
22440;BME280;11387;51.612;7.210;2023-04-01T13:36:46;98968.28;;;10.00;100.00
22440;BME280;11387;51.612;7.210;2023-04-01T13:39:21;98971.88;;;9.92;100.00
22440;BME280;11387;51.612;7.210;2023-04-01T13:42:02;98965.50;;;9.88;100.00
22440;BME280;11387;51.612;7.210;2023-04-01T13:44:37;98973.53;;;9.84;100.00
22440;BME280;11387;51.612;7.210;2023-04-01T13:47:12;98973.75;;;9.79;100.00
22440;BME280;11387;51.612;7.210;2023-04-01T13:49:54;98975.56;;;9.75;100.00
22440;BME280;11387;51.612;7.210;2023-04-01T13:52:29;98970.44;;;9.73;100.00
22440;BME280;11387;51.612;7.210;2023-04-01T13:58:03;98989.75;;;9.68;100.00
22440;BME280;11387;51.612;7.210;2023-04-01T14:00:38;98991.22;;;9.66;100.00
22440;BME280;11387;51.612;7.210;2023-04-01T14:03:27;98985.59;;;9.62;100.00
22440;BME280;11387;51.612;7.210;2023-04-01T14:06:08;98993.59;;;9.67;100.00
22440;BME280;11387;51.612;7.210;2023-04-01T14:08:42;99002.66;;;9.59;100.00
22440;BME280;11387;51.612;7.210;2023-04-01T14:11:16;99002.84;;;9.54;100.00
22440;BME280;11387;51.612;7.210;2023-04-01T14:13:49;99007.34;;;9.50;100.00
22440;BME280;11387;51.612;7.210;2023-04-01T14:19:08;99013.28;;;9.52;100.00
22440;BME280;11387;51.612;7.210;2023-04-01T14:21:42;99012.16;;;9.53;100.00
22440;BME280;11387;51.612;7.210;2023-04-01T14:24:20;99016.50;;;9.54;100.00
22440;BME280;11387;51.612;7.210;2023-04-01T14:27:09;99017.72;;;9.65;100.00
22440;BME280;11387;51.612;7.210;2023-04-01T14:29:43;99026.72;;;9.66;100.00
22440;BME280;11387;51.612;7.210;2023-04-01T14:32:17;99026.50;;;9.71;100.00
22440;BME280;11387;51.612;7.210;2023-04-01T14:34:55;99027.56;;;9.78;100.00
22440;BME280;11387;51.612;7.210;2023-04-01T14:37:53;99027.66;;;9.91;100.00
22440;BME280;11387;51.612;7.210;2023-04-01T14:40:42;99031.91;;;10.00;100.00
22440;BME280;11387;51.612;7.210;2023-04-01T14:43:23;99033.44;;;10.10;100.00
22440;BME280;11387;51.612;7.210;2023-04-01T14:46:04;99032.28;;;10.11;100.00
22440;BME280;11387;51.612;7.210;2023-04-01T14:48:36;99031.50;;;10.10;100.00
22440;BME280;11387;51.612;7.210;2023-04-01T14:51:09;99038.22;;;10.13;100.00
22440;BME280;11387;51.612;7.210;2023-04-01T14:53:43;99046.91;;;10.15;100.00
22440;BME280;11387;51.612;7.210;2023-04-01T14:56:13;99044.34;;;10.10;100.00
22440;BME280;11387;51.612;7.210;2023-04-01T14:59:01;99049.03;;;10.09;100.00